Lone Grove, Oklahoma
Current Conditions -  °F | °C
As of 2:35 AM on Thursday 27 Nov 2014 (Local Time) from K1F0 Reporting Station
Clear Clear  
Wind Chill: 30°   Ceiling: Unl
Heat Index: 39°   Visibility: 10mi
Dew Point: 27°   Wind: 16mph
Humidity: 61%   Direction: 40°NE
Pressure: 30.46"   Gusts: 21mph
Location:  34.18°N, 97.26°W
Report Text: K1F0 270835Z AUTO 04014G18KT 10SM CLR 04/M03 A3046 RMK AO2
Loading
Personal Weather Stations






























Interactive Weather Map New forecast layout! Learn more

10-Day Weather Forecast

Advertisements
Track Severe Weather on mobile